Thunder radar more information blitzortung!


Radar de pluja more information rain snow radar


Visita la nostra xarxa de llocs de meteo:

Template documentation
and downloads

And another site



No particular awareness of the weather is required.    There are no Weather-warnings

Pagina Historial Weather Underground text

Diari Resum Agost 23, 2017 Unitats:  Imperial    Mètric   Tant
« Previous Dia
SegĂźent Dia »
Diari Setmana Mensual Anual Personalitzada
  Maxima: Minima: Media:
Temperatura: TemperatureC °F 18.7 °F 27.2 °F
Punt de rosada: DewpointC °F 11.2 °F 15.8 °F
Humitat: Humidity % 27 % 53 %
Wind Speed: WindSpeedKMH mph 0.0 mph 6.7 mph
RĂ fegues de vent: WindSpeedGustKMH mph - -
Vent:- - SSW
Pression baro: PressurehPa in 1013.8 in -
Precipitacions: 0.0 in    
Historical Graphs
 
 
Dades de taula per Agost 23, 2017
Temps Temperatura Punt de rosada Pression baro Vent Wind Speed RĂ fegues de vent Humitat Rainfall Rate (Hourly)
TemperatureC °F DewpointC °F PressurehPa in Calm     Humidity % HourlyPrecipMM in
00:02 22.6 °F 17.7 °F 1015.8 in West 3.7 mph 3.7 mph 74 % 0.0 in
00:05 20.2 °F 17.2 °F 1014.8 in West 1.6 mph 4.8 mph 83 % 0.0 in
00:15 20.1 °F 16.9 °F 1014.8 in Calm   3.2 mph 82 % 0.0 in
00:25 20.1 °F 17.1 °F 1014.8 in Calm   3.2 mph 83 % 0.0 in
00:35 19.9 °F 17.1 °F 1014.8 in Calm   1.6 mph 84 % 0.0 in
00:45 19.7 °F 16.9 °F 1014.8 in ENE 3.2 mph 3.2 mph 84 % 0.0 in
00:55 19.6 °F 16.8 °F 1014.8 in Calm   3.2 mph 84 % 0.0 in
01:05 19.5 °F 16.7 °F 1014.8 in Calm   1.6 mph 84 % 0.0 in
01:10 19.5 °F 16.7 °F 1014.8 in Calm     84 % 0.0 in
01:20 19.3 °F 16.5 °F 1014.8 in Calm   1.6 mph 84 % 0.0 in
01:30 19.2 °F 16.6 °F 1014.8 in Calm   3.2 mph 85 % 0.0 in
01:40 19.3 °F 16.7 °F 1014.8 in Calm   1.6 mph 85 % 0.0 in
01:50 19.3 °F 16.7 °F 1014.8 in Calm   1.6 mph 85 % 0.0 in
02:00 19.3 °F 16.7 °F 1014.8 in Calm     85 % 0.0 in
02:10 19.2 °F 16.6 °F 1014.8 in NNW 1.6 mph 1.6 mph 85 % 0.0 in
02:20 19.1 °F 16.5 °F 1014.8 in Calm   1.6 mph 85 % 0.0 in
02:30 19.1 °F 16.7 °F 1014.8 in Calm   3.2 mph 86 % 0.0 in
02:40 19.1 °F 16.7 °F 1014.8 in ESE 1.6 mph 3.2 mph 86 % 0.0 in
02:50 19.0 °F 16.6 °F 1014.8 in Calm   3.2 mph 86 % 0.0 in
03:00 19.0 °F 16.6 °F 1014.8 in Calm   3.2 mph 86 % 0.0 in
03:10 18.9 °F 16.7 °F 1014.8 in Calm   1.6 mph 87 % 0.0 in
03:20 18.7 °F 16.3 °F 1015.8 in Calm     86 % 0.0 in
03:30 18.7 °F 16.3 °F 1015.8 in Calm     86 % 0.0 in
03:40 18.8 °F 16.4 °F 1015.8 in Calm     86 % 0.0 in
03:50 18.9 °F 16.5 °F 1015.8 in WSW 1.6 mph 1.6 mph 86 % 0.0 in
04:00 19.3 °F 16.9 °F 1015.8 in Calm   1.6 mph 86 % 0.0 in
04:10 19.5 °F 16.7 °F 1015.8 in WSW 1.6 mph 1.6 mph 84 % 0.0 in
04:20 20.0 °F 16.8 °F 1015.8 in ENE 1.6 mph 3.2 mph 82 % 0.0 in
04:30 20.6 °F 16.6 °F 1015.8 in ENE 1.6 mph 3.2 mph 78 % 0.0 in
04:40 20.9 °F 16.5 °F 1015.8 in ENE 1.6 mph 4.8 mph 76 % 0.0 in
04:50 21.3 °F 16.5 °F 1015.8 in ENE 1.6 mph 3.2 mph 74 % 0.0 in
05:00 22.0 °F 16.3 °F 1015.8 in ENE 3.2 mph 4.8 mph 70 % 0.0 in
05:10 22.4 °F 16.2 °F 1015.8 in ENE 3.2 mph 4.8 mph 68 % 0.0 in
10:13 25.4 °F 18.1 °F 1016.8 in WSW 6.9 mph 6.9 mph 64 % 0.0 in
10:14 25.4 °F 18.1 °F 1016.8 in SW 7.4 mph 7.4 mph 64 % 0.0 in
10:19 25.7 °F 18.4 °F 1016.8 in SW 6.1 mph 6.1 mph 64 % 0.0 in
10:24 25.8 °F 18.4 °F 1016.8 in West 7.4 mph 7.4 mph 64 % 0.0 in
10:29 25.9 °F 18.6 °F 1015.8 in WSW 3.7 mph 3.7 mph 64 % 0.0 in
10:34 26.1 °F 18.8 °F 1015.8 in WSW 5.6 mph 5.6 mph 64 % 0.0 in
10:39 26.8 °F 19.4 °F 1015.8 in SE 3.7 mph 3.7 mph 64 % 0.0 in
10:44 26.4 °F 18.6 °F 1015.8 in East 3.7 mph 3.7 mph 62 % 0.0 in
10:49 26.4 °F 18.8 °F 1015.8 in SW 5.0 mph 5.0 mph 63 % 0.0 in
10:54 26.6 °F 19.2 °F 1015.8 in SW 5.6 mph 5.6 mph 64 % 0.0 in
10:59 26.9 °F 19.3 °F 1015.8 in SW 3.7 mph 3.7 mph 63 % 0.0 in
11:04 27.6 °F 19.7 °F 1015.8 in SW 5.6 mph 5.6 mph 62 % 0.0 in
11:09 27.4 °F 19.2 °F 1015.8 in NW 3.7 mph 3.7 mph 61 % 0.0 in
11:14 27.6 °F 18.9 °F 1016.8 in SSE 4.7 mph 4.7 mph 59 % 0.0 in
11:19 27.9 °F 18.9 °F 1016.8 in South 5.8 mph 5.8 mph 58 % 0.0 in
11:24 28.4 °F 19.3 °F 1016.8 in SE 5.6 mph   58 % 0.0 in
11:29 28.5 °F 19.4 °F 1015.8 in SW 5.6 mph 5.6 mph 58 % 0.0 in
11:34 28.6 °F 19.2 °F 1015.8 in ENE 3.7 mph 3.7 mph 57 % 0.0 in
11:39 29.1 °F 18.8 °F 1015.8 in East 5.0 mph 5.0 mph 54 % 0.0 in
11:44 29.4 °F 18.8 °F 1015.8 in East 3.7 mph 3.7 mph 53 % 0.0 in
11:49 29.8 °F 19.5 °F 1015.8 in ESE 5.6 mph 5.6 mph 54 % 0.0 in
11:54 30.0 °F 19.4 °F 1015.8 in WSW 4.7 mph 4.7 mph 53 % 0.0 in
11:59 30.0 °F 18.4 °F 1015.8 in ENE 5.6 mph 5.6 mph 50 % 0.0 in
12:04 30.6 °F 19.3 °F 1015.8 in SW 4.7 mph 5.0 mph 51 % 0.0 in
12:09 30.3 °F 18.4 °F 1015.8 in WSW 7.4 mph 7.4 mph 49 % 0.0 in
12:14 30.2 °F 18.0 °F 1016.8 in SW 4.2 mph 6.1 mph 48 % 0.0 in
12:19 30.7 °F 17.4 °F 1016.8 in SSE 3.7 mph 3.7 mph 45 % 0.0 in
12:24 30.9 °F 17.2 °F 1016.8 in SSE 6.9 mph 6.9 mph 44 % 0.0 in
12:29 31.4 °F 18.1 °F 1015.8 in SSW 3.7 mph 3.7 mph 45 % 0.0 in
12:30 31.4 °F 18.1 °F 1015.8 in West 3.7 mph 3.7 mph 45 % 0.0 in
12:35 32.0 °F 17.8 °F 1015.8 in SW 3.7 mph 3.7 mph 43 % 0.0 in
12:40 31.6 °F 17.5 °F 1015.8 in SSE 7.4 mph 7.4 mph 43 % 0.0 in
12:45 31.3 °F 16.8 °F 1015.8 in SSW 10.3 mph 10.3 mph 42 % 0.0 in
12:50 31.2 °F 17.5 °F 1015.8 in ESE 5.8 mph 5.8 mph 44 % 0.0 in
12:55 30.8 °F 17.8 °F 1015.8 in WSW 10.0 mph 10.0 mph 46 % 0.0 in
13:00 30.2 °F 17.3 °F 1014.8 in SE 9.3 mph 9.3 mph 46 % 0.0 in
13:05 31.1 °F 18.1 °F 1014.8 in West 5.0 mph 5.0 mph 46 % 0.0 in
13:10 31.0 °F 18.0 °F 1014.8 in SW 10.3 mph 10.3 mph 46 % 0.0 in
13:15 31.2 °F 18.2 °F 1015.8 in SSW 9.5 mph 9.5 mph 46 % 0.0 in
13:20 31.2 °F 18.2 °F 1015.8 in WSW 9.3 mph 9.3 mph 46 % 0.0 in
13:25 31.8 °F 18.4 °F 1015.8 in SE 5.8 mph 5.8 mph 45 % 0.0 in
13:30 32.0 °F 18.6 °F 1015.8 in West 5.6 mph 5.6 mph 45 % 0.0 in
13:35 32.0 °F 18.2 °F 1015.8 in NNE 5.6 mph 5.6 mph 44 % 0.0 in
13:40 32.3 °F 18.8 °F 1015.8 in SW 11.1 mph 11.1 mph 45 % 0.0 in
13:45 32.3 °F 18.1 °F 1016.8 in South 5.6 mph 5.6 mph 43 % 0.0 in
13:50 33.0 °F 18.8 °F 1016.8 in SW 11.1 mph 11.1 mph 43 % 0.0 in
13:55 32.5 °F 18.3 °F 1016.8 in ESE 9.5 mph 9.5 mph 43 % 0.0 in
14:00 32.4 °F 18.6 °F 1015.8 in NNW 9.3 mph 9.3 mph 44 % 0.0 in
14:05 32.8 °F 18.9 °F 1015.8 in SSE 11.1 mph 11.1 mph 44 % 0.0 in
14:10 33.2 °F 18.6 °F 1015.8 in West 3.7 mph 3.9 mph 42 % 0.0 in
14:15 33.8 °F 19.1 °F 1015.8 in SW 9.3 mph 9.3 mph 42 % 0.0 in
14:20 33.7 °F 19.0 °F 1015.8 in SW 9.5 mph 9.5 mph 42 % 0.0 in
14:25 33.4 °F 18.3 °F 1015.8 in WSW 9.3 mph 9.3 mph 41 % 0.0 in
14:30 33.4 °F 17.9 °F 1015.8 in SSW 13.0 mph 13.0 mph 40 % 0.0 in
14:35 33.4 °F 17.9 °F 1015.8 in West 13.0 mph 13.0 mph 40 % 0.0 in
14:40 33.8 °F 18.3 °F 1015.8 in WSW 9.3 mph 9.3 mph 40 % 0.0 in
14:45 33.6 °F 17.3 °F 1014.8 in SW 14.8 mph 14.8 mph 38 % 0.0 in
14:50 33.2 °F 16.9 °F 1014.8 in WSW 14.8 mph 14.8 mph 38 % 0.0 in
14:55 33.4 °F 16.7 °F 1014.8 in WSW 13.0 mph 13.0 mph 37 % 0.0 in
15:00 33.4 °F 16.7 °F 1014.8 in WSW 11.1 mph 11.1 mph 37 % 0.0 in
15:05 33.5 °F 16.4 °F 1014.8 in South 13.0 mph 13.0 mph 36 % 0.0 in
15:10 33.5 °F 16.4 °F 1014.8 in South 4.7 mph 4.7 mph 36 % 0.0 in
15:15 33.8 °F 16.7 °F 1014.8 in West 11.1 mph 11.1 mph 36 % 0.0 in
15:20 33.9 °F 16.7 °F 1014.8 in SSW 11.1 mph 11.1 mph 36 % 0.0 in
15:25 33.7 °F 16.1 °F 1014.8 in South 14.8 mph 14.8 mph 35 % 0.0 in
15:30 33.4 °F 15.4 °F 1014.8 in SW 11.1 mph 11.1 mph 34 % 0.0 in
15:35 33.6 °F 14.6 °F 1014.8 in SW 13.0 mph 13.0 mph 32 % 0.0 in
15:40 33.8 °F 14.3 °F 1014.8 in West 11.1 mph 11.1 mph 31 % 0.0 in
15:45 33.8 °F 13.8 °F 1013.8 in SE 11.1 mph 11.1 mph 30 % 0.0 in
15:50 33.7 °F 13.2 °F 1013.8 in West 10.0 mph 10.0 mph 29 % 0.0 in
15:55 34.2 °F 13.1 °F 1013.8 in SSE 11.1 mph 11.1 mph 28 % 0.0 in
16:00 33.9 °F 12.3 °F 1014.8 in South 16.7 mph 16.7 mph 27 % 0.0 in
16:05 34.1 °F 13.0 °F 1014.8 in SW 16.7 mph 16.7 mph 28 % 0.0 in
16:10 33.8 °F 12.2 °F 1014.8 in SW 9.3 mph 9.3 mph 27 % 0.0 in
16:15 33.8 °F 12.2 °F 1014.8 in SW 13.0 mph 13.0 mph 27 % 0.0 in
16:20 33.9 °F 12.3 °F 1014.8 in WSW 16.7 mph 16.7 mph 27 % 0.0 in
16:25 33.3 °F 11.8 °F 1014.8 in West 16.7 mph 16.7 mph 27 % 0.0 in
16:30 33.0 °F 11.5 °F 1014.8 in SW 16.7 mph 16.7 mph 27 % 0.0 in
16:35 33.5 °F 11.9 °F 1014.8 in South 13.0 mph 13.0 mph 27 % 0.0 in
16:40 33.3 °F 12.3 °F 1014.8 in SSW 10.0 mph 10.0 mph 28 % 0.0 in
16:45 32.6 °F 11.2 °F 1014.8 in SW 13.0 mph 13.0 mph 27 % 0.0 in
16:50 31.9 °F 11.7 °F 1014.8 in SSW 13.0 mph 13.0 mph 29 % 0.0 in
16:55 32.3 °F 12.0 °F 1014.8 in SSW 11.1 mph 11.1 mph 29 % 0.0 in
17:00 32.7 °F 12.3 °F 1014.8 in SW 13.7 mph 13.7 mph 29 % 0.0 in
17:05 32.5 °F 12.7 °F 1014.8 in SW 9.3 mph 9.3 mph 30 % 0.0 in
17:10 31.8 °F 11.6 °F 1014.8 in WSW 14.8 mph 14.8 mph 29 % 0.0 in
17:15 32.0 °F 11.7 °F 1014.8 in SSW 13.0 mph 13.0 mph 29 % 0.0 in
17:20 32.2 °F 11.9 °F 1014.8 in SW 9.0 mph 9.0 mph 29 % 0.0 in
17:25 32.0 °F 11.2 °F 1014.8 in SSW 20.4 mph 20.4 mph 28 % 0.0 in
17:30 32.0 °F 11.7 °F 1014.8 in WSW 11.1 mph 11.1 mph 29 % 0.0 in
17:35 32.3 °F 12.5 °F 1014.8 in SSW 13.0 mph 13.0 mph 30 % 0.0 in
17:40 31.9 °F 12.2 °F 1014.8 in South 11.1 mph 11.1 mph 30 % 0.0 in
17:45 31.4 °F 11.2 °F 1014.8 in WSW 14.8 mph 14.8 mph 29 % 0.0 in
17:50 31.1 °F 11.5 °F 1014.8 in SSW 9.3 mph 9.3 mph 30 % 0.0 in
17:55 31.0 °F 11.4 °F 1014.8 in SSW 14.8 mph 14.8 mph 30 % 0.0 in
18:00 31.0 °F 11.9 °F 1014.8 in SSW 13.0 mph 13.0 mph 31 % 0.0 in
18:05 31.0 °F 12.4 °F 1014.8 in SSE 6.4 mph 6.4 mph 32 % 0.0 in
18:10 31.3 °F 12.6 °F 1014.8 in WSW 13.0 mph 13.0 mph 32 % 0.0 in
18:15 31.4 °F 12.2 °F 1014.8 in SW 9.3 mph 9.3 mph 31 % 0.0 in
18:20 30.8 °F 11.2 °F 1014.8 in SW 18.5 mph 18.5 mph 30 % 0.0 in
18:25 30.2 °F 11.2 °F 1014.8 in SW 13.0 mph 13.0 mph 31 % 0.0 in
18:30 29.8 °F 11.3 °F 1014.8 in SW 13.0 mph 13.0 mph 32 % 0.0 in
18:35 29.6 °F 11.2 °F 1014.8 in SSW 11.1 mph 11.1 mph 32 % 0.0 in
18:40 29.5 °F 11.6 °F 1014.8 in SW 9.5 mph 9.5 mph 33 % 0.0 in
18:45 29.3 °F 12.3 °F 1014.8 in SSW 7.4 mph 7.4 mph 35 % 0.0 in
18:50 29.2 °F 12.6 °F 1014.8 in SW 11.1 mph 11.1 mph 36 % 0.0 in
18:55 29.4 °F 12.8 °F 1014.8 in SW 6.4 mph 6.4 mph 36 % 0.0 in
19:00 29.3 °F 12.7 °F 1014.8 in SW 11.1 mph 11.1 mph 36 % 0.0 in
19:05 28.9 °F 12.7 °F 1014.8 in SSW 9.5 mph 9.5 mph 37 % 0.0 in
19:10 28.5 °F 12.8 °F 1014.8 in SW 9.3 mph 9.3 mph 38 % 0.0 in
19:15 28.3 °F 12.6 °F 1014.8 in SW 4.7 mph 4.7 mph 38 % 0.0 in
19:20 28.1 °F 12.8 °F 1014.8 in West 11.1 mph 11.1 mph 39 % 0.0 in
19:25 27.9 °F 12.7 °F 1014.8 in SW 9.3 mph 9.3 mph 39 % 0.0 in
19:30 27.6 °F 12.4 °F 1014.8 in SW 7.4 mph 7.4 mph 39 % 0.0 in
19:35 27.5 °F 12.3 °F 1014.8 in West 1.9 mph   39 % 0.0 in
19:40 27.4 °F 12.2 °F 1014.8 in WSW 3.7 mph 3.7 mph 39 % 0.0 in
19:45 27.4 °F 12.2 °F 1014.8 in WSW 6.9 mph 6.9 mph 39 % 0.0 in
19:50 27.3 °F 12.5 °F 1014.8 in SW 8.7 mph 8.7 mph 40 % 0.0 in
19:55 27.1 °F 12.3 °F 1014.8 in SW 9.3 mph 9.3 mph 40 % 0.0 in
20:00 27.0 °F 12.6 °F 1015.8 in SSW 7.4 mph 7.4 mph 41 % 0.0 in
20:05 26.7 °F 13.1 °F 1015.8 in SSW 9.3 mph 9.3 mph 43 % 0.0 in
20:10 26.6 °F 13.0 °F 1015.8 in SW 3.7 mph 3.7 mph 43 % 0.0 in
20:15 26.5 °F 13.3 °F 1014.8 in SW 6.1 mph 6.1 mph 44 % 0.0 in
20:20 26.4 °F 13.5 °F 1014.8 in SW 3.7 mph 3.7 mph 45 % 0.0 in
20:25 26.2 °F 13.7 °F 1014.8 in SSW 5.6 mph 5.6 mph 46 % 0.0 in
20:30 26.1 °F 13.9 °F 1014.8 in SSW 7.4 mph 7.4 mph 47 % 0.0 in
20:35 26.0 °F 13.8 °F 1014.8 in SW 5.6 mph 5.6 mph 47 % 0.0 in
20:40 25.9 °F 14.1 °F 1014.8 in SW 5.6 mph 5.6 mph 48 % 0.0 in
20:45 25.7 °F 14.2 °F 1015.8 in SW 11.1 mph 11.1 mph 49 % 0.0 in
20:50 25.6 °F 14.4 °F 1015.8 in SW 9.7 mph 9.7 mph 50 % 0.0 in
20:55 25.5 °F 14.3 °F 1015.8 in WSW 9.3 mph 9.3 mph 50 % 0.0 in
21:00 25.4 °F 14.5 °F 1014.8 in West 7.4 mph 7.4 mph 51 % 0.0 in
21:05 25.3 °F 14.4 °F 1014.8 in West 7.4 mph 7.4 mph 51 % 0.0 in
21:10 25.2 °F 14.7 °F 1014.8 in SW 5.6 mph 5.6 mph 52 % 0.0 in
21:15 25.2 °F 14.7 °F 1014.8 in SW 7.4 mph 7.4 mph 52 % 0.0 in
21:20 25.0 °F 15.1 °F 1014.8 in SW 9.3 mph 9.3 mph 54 % 0.0 in
21:25 25.0 °F 15.3 °F 1014.8 in NW 5.6 mph 5.6 mph 55 % 0.0 in
21:30 24.8 °F 15.7 °F 1014.8 in SW 5.6 mph 5.6 mph 57 % 0.0 in
21:35 24.8 °F 15.7 °F 1014.8 in WSW 5.6 mph 5.6 mph 57 % 0.0 in
21:40 24.7 °F 15.9 °F 1014.8 in SW 3.7 mph 3.7 mph 58 % 0.0 in
21:45 24.6 °F 16.1 °F 1015.8 in WSW 3.9 mph 3.9 mph 59 % 0.0 in
21:50 24.6 °F 16.1 °F 1015.8 in SW 5.6 mph 5.6 mph 59 % 0.0 in
21:55 24.5 °F 16.2 °F 1015.8 in SW 3.7 mph 3.7 mph 60 % 0.0 in
22:00 24.4 °F 16.1 °F 1015.8 in SSW 3.7 mph 3.7 mph 60 % 0.0 in
22:05 24.2 °F 15.9 °F 1015.8 in WSW 6.1 mph 6.1 mph 60 % 0.0 in
22:10 24.1 °F 16.4 °F 1015.8 in SW 4.2 mph 4.2 mph 62 % 0.0 in
22:15 24.1 °F 16.4 °F 1015.8 in South 5.8 mph 5.8 mph 62 % 0.0 in
22:20 24.0 °F 16.3 °F 1015.8 in SSW 6.1 mph 6.1 mph 62 % 0.0 in
22:25 23.9 °F 16.7 °F 1015.8 in West 4.2 mph 4.2 mph 64 % 0.0 in
22:30 23.9 °F 16.9 °F 1015.8 in SW 5.3 mph 5.3 mph 65 % 0.0 in
22:35 23.8 °F 16.8 °F 1015.8 in SW 3.7 mph 3.7 mph 65 % 0.0 in
22:40 23.7 °F 16.9 °F 1015.8 in SW 4.2 mph 4.2 mph 66 % 0.0 in
22:42 23.7 °F 16.9 °F 1014.8 in West 4.2 mph 4.2 mph 66 % 0.0 in
22:47 23.7 °F 16.9 °F 1014.8 in West 1.9 mph 2.3 mph 66 % 0.0 in
22:50 21.8 °F 17.2 °F 1014.8 in SW 3.2 mph 4.8 mph 75 % 0.0 in
22:52 23.6 °F 17.3 °F 1014.8 in Calm     68 % 0.0 in
22:57 23.6 °F 16.9 °F 1015.8 in West 3.7 mph 3.7 mph 66 % 0.0 in
23:00 21.9 °F 17.5 °F 1014.8 in WSW 3.2 mph 3.2 mph 76 % 0.0 in
23:02 23.6 °F 17.3 °F 1015.8 in SW 3.7 mph   68 % 0.0 in
23:07 23.5 °F 17.3 °F 1015.8 in SW 3.7 mph 3.7 mph 68 % 0.0 in
23:10 22.0 °F 17.6 °F 1014.8 in SW 3.2 mph 3.2 mph 76 % 0.0 in
23:12 23.5 °F 17.3 °F 1015.8 in SW 3.7 mph 3.7 mph 68 % 0.0 in
23:17 23.5 °F 17.3 °F 1015.8 in SW 3.7 mph 3.7 mph 68 % 0.0 in
23:20 22.1 °F 17.7 °F 1014.8 in WSW 3.2 mph 4.8 mph 76 % 0.0 in
23:22 23.3 °F 17.1 °F 1015.8 in SW 5.0 mph 5.0 mph 68 % 0.0 in
23:27 23.3 °F 17.3 °F 1015.8 in SSW 3.7 mph 3.7 mph 69 % 0.0 in
23:30 22.0 °F 17.6 °F 1015.8 in WSW 3.2 mph 4.8 mph 76 % 0.0 in
23:32 23.3 °F 17.3 °F 1015.8 in SSW 3.9 mph 3.9 mph 69 % 0.0 in
23:37 23.2 °F 17.4 °F 1015.8 in SW 3.7 mph 3.7 mph 70 % 0.0 in
23:40 22.0 °F 17.6 °F 1015.8 in WSW 4.8 mph 9.7 mph 76 % 0.0 in
23:42 23.3 °F 17.5 °F 1015.8 in SW 3.7 mph 3.7 mph 70 % 0.0 in
23:47 23.2 °F 17.4 °F 1015.8 in WSW 3.7 mph 3.7 mph 70 % 0.0 in
23:50 22.0 °F 17.6 °F 1014.8 in WSW 1.6 mph 4.8 mph 76 % 0.0 in
23:52 23.2 °F 17.4 °F 1015.8 in SW 3.7 mph 3.7 mph 70 % 0.0 in
23:57 23.2 °F 17.4 °F 1015.8 in SW 5.3 mph 5.3 mph 70 % 0.0 in
Meteo Sesrovires
Elogis d' Weather Underground - 1.5 mb

Guio original per  Jim McMurry - jmcmurry@mwt.net Adaptat per a la plantilla per  Wim van der Kuil - Leuven-Template.eu

Trobareu la nostra informacio del temps tambe a:

Weather Underground

AWEKAS